Главная страница
METAR-TAF:

METAR-TAF

Аэропорты :

Dzaoudzi, Майотта

широта: 12-48S, долгота: 045-17E, высота над уровнем моря: 8 м

Текущие метеонаблюдения

Эта сводка был подготовлена 39 минут назад, в 13:00 UTC
Ветер 8 Узел от юго-юго-восточный
Температура 33°C
Влажность 56%
Давление 1007 hPa
Видимость 10 км и более
Нет облачности ниже 1500 м, и нет кучево-дождевой облачности

METAR: FMCZ 031300Z AUTO 15008KT CAVOK 33/23 Q1007 NOSIG

Время: 16:39 (13:39 UTC)

Прогноз

Эта сводка был подготовлена 2 часа и 39 минут назад, в 11:00 UTC
Прогноз действительный с 03-го 12 UTC до 04-го 12 UTC
Ветер 10 Узел от южный
Видимость 10 км и более
небольшая облачность на высоте 2500 фута
временами
С 03-го 23 UTC до 04-го 09 UTC
Видимость: 3000 м
Отдельные облака на высоте 1000 фута
Отдельные облака на высоте 1300 фута, Кучево-дождевые.
Рассеянная облачность на высоте 1500 фута, мощно-кучевые.
гроза, дождь,

TAF: FMCZ 031100Z 0312/0412 19010KT 9999 FEW025 TEMPO 0323/0409 3000 TSRA SCT010 SCT013CB BKN015TCU

Метеонаблюдения и прогнозы для более 4000 аэропортов (сводки METAR и TAF).

Имеющиеся станции представлены на карте желтыми и красными точками.

Чтобы увидеть название станции, наведите на нее мышь.

Затем щелкните, чтобы увидеть метеонаблюдения и метеопрогнозы.

Управление картой: чтобы увеличить масштаб, щелкните зеленые кнопки с черным крестиком; чтобы уменьшить масштаб, щелкните зеленую кнопку с тире; для просмотра соседних карт щелкайте зеленые стрелки.


METAR-TAF: